createdAt,value
2022-09-11T00:00:39.612Z,100620.03
2022-09-11T00:03:23.950Z,100619.22
2022-09-11T00:05:55.110Z,100625.63
2022-09-11T00:08:22.942Z,100621.66
2022-09-11T00:10:51.068Z,100628.31
2022-09-11T00:13:27.611Z,100635.78
2022-09-11T00:16:58.503Z,100638.47
2022-09-11T00:19:28.982Z,100635.56
2022-09-11T00:21:58.672Z,100628.75
2022-09-11T00:24:26.189Z,100631.84
2022-09-11T00:26:54.550Z,100636.59
2022-09-11T00:29:22.376Z,100631.31
2022-09-11T00:31:50.486Z,100646.88
2022-09-11T00:34:18.122Z,100642.09
2022-09-11T00:36:48.344Z,100654.38
2022-09-11T00:39:16.023Z,100644.00
2022-09-11T00:41:46.143Z,100652.47
2022-09-11T00:44:50.818Z,100656.97
2022-09-11T00:47:19.257Z,100651.38
2022-09-11T00:49:49.970Z,100663.97
2022-09-11T00:52:21.317Z,100660.44
2022-09-11T00:54:53.210Z,100662.06
2022-09-11T00:57:24.059Z,100667.88
2022-09-11T00:59:52.939Z,100669.44
2022-09-11T01:02:27.176Z,100666.63
2022-09-11T01:04:55.733Z,100674.69
2022-09-11T01:07:25.859Z,100686.00
2022-09-11T01:09:55.183Z,100680.22
2022-09-11T01:12:24.907Z,100673.22
2022-09-11T01:14:55.990Z,100674.25
2022-09-11T01:17:28.541Z,100678.56
2022-09-11T01:20:14.424Z,100682.75
2022-09-11T01:23:17.892Z,100680.22
2022-09-11T01:26:00.630Z,100680.47
2022-09-11T01:28:33.659Z,100680.84
2022-09-11T01:31:07.454Z,100688.97
2022-09-11T01:33:39.769Z,100687.47
2022-09-11T01:36:10.099Z,100684.38
2022-09-11T01:38:40.937Z,100686.09
2022-09-11T01:41:10.656Z,100679.03
2022-09-11T01:43:42.950Z,100686.88
2022-09-11T01:46:10.669Z,100686.56
2022-09-11T01:48:41.155Z,100680.53
2022-09-11T01:51:10.242Z,100684.72
2022-09-11T01:53:40.383Z,100686.00
2022-09-11T01:56:11.218Z,100684.38
2022-09-11T01:58:40.497Z,100679.47
2022-09-11T02:01:10.668Z,100685.63
2022-09-11T02:03:41.354Z,100685.84
2022-09-11T02:06:11.689Z,100683.84
2022-09-11T02:08:42.257Z,100686.78
2022-09-11T02:11:12.267Z,100686.94
2022-09-11T02:13:45.731Z,100689.97
2022-09-11T02:16:19.666Z,100693.78
2022-09-11T02:18:58.663Z,100699.19
2022-09-11T02:21:27.695Z,100701.91
2022-09-11T02:23:55.684Z,100707.94
2022-09-11T02:26:25.062Z,100712.66
2022-09-11T02:28:54.872Z,100713.50
2022-09-11T02:31:22.805Z,100709.75
2022-09-11T02:33:51.222Z,100720.91
2022-09-11T02:36:35.533Z,100723.38
2022-09-11T02:39:17.013Z,100729.97
2022-09-11T02:41:55.248Z,100723.50
2022-09-11T02:44:29.635Z,100725.59
2022-09-11T02:47:07.470Z,100722.09
2022-09-11T02:49:42.983Z,100730.56
2022-09-11T02:52:18.359Z,100733.03
2022-09-11T02:54:53.485Z,100735.50
2022-09-11T02:57:26.419Z,100737.13
2022-09-11T03:00:00.253Z,100736.53
2022-09-11T03:02:28.681Z,100736.97
2022-09-11T03:04:56.665Z,100744.16
2022-09-11T03:07:25.167Z,100741.03
2022-09-11T03:09:52.884Z,100749.31
2022-09-11T03:12:20.331Z,100742.91
2022-09-11T03:14:48.542Z,100750.16
2022-09-11T03:17:17.557Z,100754.69
2022-09-11T03:19:44.998Z,100745.78
2022-09-11T03:22:12.584Z,100755.31
2022-09-11T03:24:40.106Z,100753.59
2022-09-11T03:27:07.742Z,100766.59
2022-09-11T03:29:35.154Z,100757.50
2022-09-11T03:32:02.912Z,100759.19
2022-09-11T03:34:31.734Z,100769.47
2022-09-11T03:37:00.175Z,100773.41
2022-09-11T03:39:27.607Z,100774.44
2022-09-11T03:41:55.181Z,100777.13
2022-09-11T03:44:23.129Z,100776.50
2022-09-11T03:46:50.626Z,100786.81
2022-09-11T03:49:18.089Z,100780.41
2022-09-11T03:51:47.757Z,100778.16
2022-09-11T03:54:16.002Z,100790.09
2022-09-11T03:56:43.847Z,100786.63
2022-09-11T03:59:11.296Z,100788.28
2022-09-11T04:01:38.803Z,100791.34
2022-09-11T04:04:06.321Z,100790.06
2022-09-11T04:06:33.878Z,100787.03
2022-09-11T04:09:02.692Z,100797.09
2022-09-11T04:11:33.309Z,100801.09
2022-09-11T04:14:04.326Z,100792.97
2022-09-11T04:16:32.827Z,100803.00
2022-09-11T04:19:00.918Z,100796.56
2022-09-11T04:21:29.035Z,100805.47
2022-09-11T04:24:00.068Z,100793.25
2022-09-11T04:26:30.724Z,100802.22
2022-09-11T04:28:59.397Z,100797.94
2022-09-11T04:31:27.620Z,100798.59
2022-09-11T04:33:57.743Z,100795.53
2022-09-11T04:36:26.946Z,100799.25
2022-09-11T04:38:57.719Z,100800.91
2022-09-11T04:41:26.138Z,100800.31
2022-09-11T04:44:00.025Z,100796.81
2022-09-11T04:46:30.022Z,100812.94
2022-09-11T04:49:00.096Z,100819.38
2022-09-11T04:51:30.045Z,100809.66
2022-09-11T04:53:58.847Z,100817.91
2022-09-11T04:56:28.029Z,100822.03
2022-09-11T04:58:59.301Z,100824.72
2022-09-11T05:01:28.809Z,100830.06
2022-09-11T05:03:56.508Z,100826.38
2022-09-11T05:06:24.057Z,100830.28
2022-09-11T05:08:51.772Z,100833.41
2022-09-11T05:11:20.900Z,100833.59
2022-09-11T05:13:48.822Z,100835.25
2022-09-11T05:16:18.519Z,100843.91
2022-09-11T05:18:51.920Z,100845.34
2022-09-11T05:21:22.385Z,100846.38
2022-09-11T05:23:51.195Z,100845.97
2022-09-11T05:26:19.704Z,100850.09
2022-09-11T05:28:47.222Z,100845.75
2022-09-11T05:31:17.747Z,100852.56
2022-09-11T05:33:45.518Z,100857.72
2022-09-11T05:36:14.592Z,100854.22
2022-09-11T05:38:42.831Z,100860.00
2022-09-11T05:41:12.505Z,100857.91
2022-09-11T05:43:41.035Z,100863.50
2022-09-11T05:46:11.793Z,100859.56
2022-09-11T05:48:41.297Z,100864.94
2022-09-11T05:51:12.797Z,100869.06
2022-09-11T05:53:40.786Z,100868.44
2022-09-11T05:56:09.657Z,100869.50
2022-09-11T05:58:37.488Z,100864.53
2022-09-11T06:01:08.214Z,100864.53
2022-09-11T06:03:36.042Z,100871.13
2022-09-11T06:06:06.500Z,100878.97
2022-09-11T06:08:34.640Z,100877.72
2022-09-11T06:11:03.315Z,100881.44
2022-09-11T06:13:31.672Z,100886.00
2022-09-11T06:15:59.099Z,100890.75
2022-09-11T06:18:26.584Z,100894.66
2022-09-11T06:20:57.707Z,100901.47
2022-09-11T06:23:26.578Z,100901.25
2022-09-11T06:25:54.750Z,100902.47
2022-09-11T06:28:23.410Z,100903.34
2022-09-11T06:30:51.257Z,100905.78
2022-09-11T06:33:20.396Z,100908.25
2022-09-11T06:35:58.580Z,100918.59
2022-09-11T06:38:27.839Z,100917.72
2022-09-11T06:40:55.669Z,100916.25
2022-09-11T06:43:23.180Z,100928.00
2022-09-11T06:45:50.643Z,100922.56
2022-09-11T06:48:18.917Z,100921.50
2022-09-11T06:50:46.618Z,100920.06
2022-09-11T06:53:15.111Z,100922.91
2022-09-11T06:55:43.875Z,100922.09
2022-09-11T06:58:11.795Z,100922.50
2022-09-11T07:00:39.359Z,100929.50
2022-09-11T07:03:07.204Z,100925.13
2022-09-11T07:05:34.639Z,100918.28
2022-09-11T07:08:02.476Z,100915.56
2022-09-11T07:10:29.951Z,100924.38
2022-09-11T07:12:58.738Z,100920.75
2022-09-11T07:15:26.182Z,100929.56
2022-09-11T07:17:55.251Z,100932.16
2022-09-11T07:20:23.189Z,100931.84
2022-09-11T07:22:50.732Z,100932.06
2022-09-11T07:25:18.546Z,100933.66
2022-09-11T07:27:46.285Z,100933.03
2022-09-11T07:30:15.315Z,100935.91
2022-09-11T07:32:42.759Z,100939.00
2022-09-11T07:35:10.211Z,100944.50
2022-09-11T07:37:37.636Z,100943.88
2022-09-11T07:40:05.942Z,100948.66
2022-09-11T07:42:33.906Z,100955.06
2022-09-11T07:45:01.332Z,100955.09
2022-09-11T07:47:30.852Z,100957.94
2022-09-11T07:49:58.303Z,100954.47
2022-09-11T07:52:26.180Z,100962.97
2022-09-11T07:54:55.744Z,100964.91
2022-09-11T07:57:24.209Z,100958.75
2022-09-11T07:59:51.657Z,100958.91
2022-09-11T08:02:20.067Z,100963.56
2022-09-11T08:04:49.122Z,100964.47
2022-09-11T08:07:17.009Z,100968.69
2022-09-11T08:09:44.452Z,100964.72
2022-09-11T08:12:12.130Z,100959.66
2022-09-11T08:14:39.605Z,100964.16
2022-09-11T08:17:07.055Z,100963.72
2022-09-11T08:19:34.529Z,100965.28
2022-09-11T08:22:03.571Z,100964.91
2022-09-11T08:24:31.069Z,100962.44
2022-09-11T08:26:58.634Z,100972.13
2022-09-11T08:29:26.186Z,100975.44
2022-09-11T08:31:53.705Z,100973.25
2022-09-11T08:34:22.182Z,100978.09
2022-09-11T08:36:51.898Z,100978.84
2022-09-11T08:39:20.726Z,100986.97
2022-09-11T08:41:49.874Z,100992.81
2022-09-11T08:44:21.871Z,100985.53
2022-09-11T08:46:51.754Z,100978.88
2022-09-11T08:49:24.524Z,100989.59
2022-09-11T08:51:52.986Z,100973.13
2022-09-11T08:54:27.516Z,100991.38
2022-09-11T08:57:01.533Z,100985.19
2022-09-11T08:59:34.921Z,100987.00
2022-09-11T09:02:13.457Z,100979.22
2022-09-11T09:04:56.790Z,100993.13
2022-09-11T09:07:32.030Z,100990.38
2022-09-11T09:10:04.801Z,100991.94
2022-09-11T09:12:40.400Z,100996.50
2022-09-11T09:15:17.958Z,100993.44
2022-09-11T09:17:49.101Z,100996.59
2022-09-11T09:20:22.485Z,100990.97
2022-09-11T09:22:53.651Z,100997.06
2022-09-11T09:25:23.733Z,100992.59
2022-09-11T09:27:55.347Z,100997.31
2022-09-11T09:30:27.215Z,100998.59
2022-09-11T09:32:58.532Z,100993.91
2022-09-11T09:35:39.577Z,100997.31
2022-09-11T09:38:12.227Z,101006.13
2022-09-11T09:40:47.006Z,101000.03
2022-09-11T09:43:24.280Z,101005.06
2022-09-11T09:46:02.564Z,101005.44
2022-09-11T09:48:34.430Z,101007.06
2022-09-11T09:51:04.005Z,101003.31
2022-09-11T09:53:35.961Z,101004.13
2022-09-11T09:56:05.902Z,101002.94
2022-09-11T09:58:37.893Z,101001.78
2022-09-11T10:01:08.171Z,100995.09
2022-09-11T10:03:35.726Z,100996.03
2022-09-11T10:06:03.201Z,100994.81
2022-09-11T10:08:35.450Z,100992.91
2022-09-11T10:11:05.699Z,100990.31
2022-09-11T10:13:34.313Z,100983.22
2022-09-11T10:16:03.681Z,100991.31
2022-09-11T10:18:42.416Z,100988.41
2022-09-11T10:21:22.442Z,100995.16
2022-09-11T10:23:52.520Z,100996.00
2022-09-11T10:26:25.995Z,100995.94
2022-09-11T10:28:54.342Z,101000.06
2022-09-11T10:31:22.687Z,101001.84
2022-09-11T10:33:53.328Z,100997.84
2022-09-11T10:36:24.333Z,100994.09
2022-09-11T10:38:52.868Z,100992.22
2022-09-11T10:41:24.881Z,100989.75
2022-09-11T10:43:56.453Z,100994.09
2022-09-11T10:46:28.217Z,100992.09
2022-09-11T10:48:57.813Z,100987.28
2022-09-11T10:51:27.261Z,101001.50
2022-09-11T10:54:05.278Z,100992.69
2022-09-11T10:56:40.000Z,101000.13
2022-09-11T10:59:13.246Z,101004.63
2022-09-11T11:01:40.886Z,101002.13
2022-09-11T11:04:12.422Z,100998.72
2022-09-11T11:06:53.956Z,101001.53
2022-09-11T11:09:31.321Z,101004.00
2022-09-11T11:12:13.768Z,101013.88
2022-09-11T11:14:54.615Z,101018.81
2022-09-11T11:17:25.355Z,101008.13
2022-09-11T11:20:02.056Z,101008.47
2022-09-11T11:22:42.208Z,101004.72
2022-09-11T11:25:15.770Z,100998.59
2022-09-11T11:28:00.334Z,101000.97
2022-09-11T11:30:31.750Z,101003.53
2022-09-11T11:33:14.582Z,101005.66
2022-09-11T11:35:46.961Z,100996.38
2022-09-11T11:38:18.333Z,101002.13
2022-09-11T11:40:49.545Z,101006.00
2022-09-11T11:43:21.751Z,101002.38
2022-09-11T11:45:53.329Z,101015.28
2022-09-11T11:48:26.137Z,101007.41
2022-09-11T11:50:55.196Z,101000.13
2022-09-11T11:53:25.584Z,100999.56
2022-09-11T11:56:01.219Z,100997.44
2022-09-11T11:58:40.343Z,100993.88
2022-09-11T12:01:13.132Z,100991.88
2022-09-11T12:03:44.906Z,100996.59
2022-09-11T12:06:12.506Z,100996.78
2022-09-11T12:08:44.592Z,101002.50
2022-09-11T12:11:13.939Z,101000.19
2022-09-11T12:13:44.890Z,101004.53
2022-09-11T12:16:17.229Z,101008.28
2022-09-11T12:19:04.146Z,101010.41
2022-09-11T12:21:37.453Z,101004.66
2022-09-11T12:24:17.771Z,101011.63
2022-09-11T12:26:45.584Z,101008.34
2022-09-11T12:29:49.917Z,101014.28
2022-09-11T12:32:43.267Z,101008.94
2022-09-11T12:35:19.313Z,101006.56
2022-09-11T12:37:54.031Z,100999.81
2022-09-11T12:40:26.356Z,101005.56
2022-09-11T12:42:59.016Z,101001.47
2022-09-11T12:45:36.210Z,100997.47
2022-09-11T12:48:07.248Z,100997.22
2022-09-11T12:50:35.530Z,100996.97
2022-09-11T12:53:06.456Z,100995.25
2022-09-11T12:55:39.639Z,100985.63
2022-09-11T12:58:09.672Z,100993.84
2022-09-11T13:00:39.878Z,100982.59
2022-09-11T13:03:17.290Z,100973.78
2022-09-11T13:05:45.657Z,100975.97
2022-09-11T13:08:17.977Z,100963.16
2022-09-11T13:10:46.701Z,100966.09
2022-09-11T13:13:47.917Z,100957.59
2022-09-11T13:16:19.501Z,100959.69
2022-09-11T13:18:48.452Z,100960.06
2022-09-11T13:21:20.238Z,100960.19
2022-09-11T13:23:49.586Z,100958.34
2022-09-11T13:26:30.314Z,100954.41
2022-09-11T13:28:59.886Z,100950.28
2022-09-11T13:31:33.723Z,100943.47
2022-09-11T13:34:04.383Z,100953.31
2022-09-11T13:36:33.220Z,100943.53
2022-09-11T13:39:04.582Z,100947.72
2022-09-11T13:41:34.176Z,100945.81
2022-09-11T13:44:03.718Z,100940.38
2022-09-11T13:46:32.447Z,100941.69
2022-09-11T13:49:28.085Z,100934.28
2022-09-11T13:51:56.025Z,100943.19
2022-09-11T13:54:28.774Z,100938.13
2022-09-11T13:57:23.991Z,100937.19
2022-09-11T13:59:54.168Z,100931.94
2022-09-11T14:02:46.882Z,100926.63
2022-09-11T14:05:20.711Z,100924.31
2022-09-11T14:07:56.509Z,100921.59
2022-09-11T14:10:29.675Z,100915.19
2022-09-11T14:13:03.729Z,100910.97
2022-09-11T14:15:40.423Z,100910.34
2022-09-11T14:18:14.664Z,100915.09
2022-09-11T14:20:45.077Z,100903.25
2022-09-11T14:23:17.240Z,100904.78
2022-09-11T14:26:06.584Z,100905.13
2022-09-11T14:28:37.252Z,100905.13
2022-09-11T14:31:08.466Z,100898.16
2022-09-11T14:33:36.113Z,100899.34
2022-09-11T14:36:07.988Z,100890.84
2022-09-11T14:38:50.460Z,100889.25
2022-09-11T14:41:24.881Z,100889.59
2022-09-11T14:43:53.034Z,100882.03
2022-09-11T14:46:20.560Z,100880.06
2022-09-11T14:48:48.143Z,100873.97
2022-09-11T14:51:17.221Z,100875.13
2022-09-11T14:53:45.196Z,100875.97
2022-09-11T14:56:12.867Z,100871.31
2022-09-11T14:58:42.252Z,100865.25
2022-09-11T15:01:12.345Z,100867.97
2022-09-11T15:03:40.013Z,100873.34
2022-09-11T15:06:12.000Z,100868.56
2022-09-11T15:08:41.907Z,100870.22
2022-09-11T15:11:09.441Z,100868.22
2022-09-11T15:13:37.961Z,100866.91
2022-09-11T15:16:12.053Z,100867.94
2022-09-11T15:18:40.768Z,100863.03
2022-09-11T15:21:08.419Z,100865.53
2022-09-11T15:23:36.153Z,100864.31
2022-09-11T15:26:05.581Z,100861.44
2022-09-11T15:28:33.335Z,100866.81
2022-09-11T15:31:01.865Z,100864.16
2022-09-11T15:33:30.097Z,100853.56
2022-09-11T15:36:02.123Z,100853.91
2022-09-11T15:38:29.813Z,100856.41
2022-09-11T15:40:58.235Z,100854.97
2022-09-11T15:43:35.804Z,100856.31
2022-09-11T15:46:09.273Z,100857.03
2022-09-11T15:48:36.879Z,100845.84
2022-09-11T15:51:05.307Z,100853.22
2022-09-11T15:53:33.633Z,100854.00
2022-09-11T15:56:06.049Z,100854.66
2022-09-11T15:58:35.361Z,100850.44
2022-09-11T16:01:03.491Z,100855.75
2022-09-11T16:03:31.465Z,100855.53
2022-09-11T16:06:00.933Z,100862.41
2022-09-11T16:08:29.198Z,100862.97
2022-09-11T16:10:56.737Z,100858.88
2022-09-11T16:13:25.251Z,100861.72
2022-09-11T16:16:02.488Z,100866.03
2022-09-11T16:18:30.722Z,100856.31
2022-09-11T16:21:01.380Z,100856.81
2022-09-11T16:23:34.935Z,100857.28
2022-09-11T16:26:04.134Z,100863.06
2022-09-11T16:28:33.842Z,100860.91
2022-09-11T16:31:03.342Z,100855.47
2022-09-11T16:33:31.608Z,100847.47
2022-09-11T16:35:59.910Z,100852.22
2022-09-11T16:38:27.757Z,100849.25
2022-09-11T16:41:02.687Z,100849.38
2022-09-11T16:43:31.481Z,100853.97
2022-09-11T16:45:59.075Z,100854.81
2022-09-11T16:48:28.137Z,100854.56
2022-09-11T16:50:57.753Z,100852.94
2022-09-11T16:53:27.462Z,100859.41
2022-09-11T16:55:57.047Z,100859.00
2022-09-11T16:58:24.804Z,100850.97
2022-09-11T17:00:54.020Z,100849.91
2022-09-11T17:03:22.105Z,100844.41
2022-09-11T17:05:52.781Z,100849.00
2022-09-11T17:08:21.347Z,100844.25
2022-09-11T17:10:50.754Z,100851.00
2022-09-11T17:13:19.394Z,100852.53
2022-09-11T17:15:47.161Z,100851.72
2022-09-11T17:18:14.771Z,100855.09
2022-09-11T17:20:42.644Z,100860.06
2022-09-11T17:23:12.138Z,100854.50
2022-09-11T17:25:41.753Z,100857.81
2022-09-11T17:28:09.357Z,100848.69
2022-09-11T17:30:39.618Z,100847.81
2022-09-11T17:33:07.420Z,100846.78
2022-09-11T17:35:35.002Z,100847.44
2022-09-11T17:38:03.677Z,100847.25
2022-09-11T17:40:32.786Z,100853.72
2022-09-11T17:43:01.044Z,100852.94
2022-09-11T17:45:30.973Z,100855.44
2022-09-11T17:47:58.745Z,100854.88
2022-09-11T17:50:28.172Z,100853.28
2022-09-11T17:52:56.099Z,100855.72
2022-09-11T17:55:23.825Z,100847.41
2022-09-11T17:57:55.828Z,100851.53
2022-09-11T18:00:23.793Z,100857.25
2022-09-11T18:02:56.713Z,100859.25
2022-09-11T18:05:24.355Z,100854.44
2022-09-11T18:07:52.095Z,100852.91
2022-09-11T18:10:20.722Z,100853.25
2022-09-11T18:12:50.950Z,100859.22
2022-09-11T18:15:19.947Z,100861.44
2022-09-11T18:17:47.957Z,100864.00
2022-09-11T18:20:17.736Z,100865.38
2022-09-11T18:22:45.318Z,100868.28
2022-09-11T18:25:13.197Z,100872.94
2022-09-11T18:27:41.121Z,100870.06
2022-09-11T18:30:09.930Z,100879.66
2022-09-11T18:32:39.963Z,100877.88
2022-09-11T18:35:08.956Z,100874.00
2022-09-11T18:37:36.693Z,100875.13
2022-09-11T18:40:05.117Z,100874.63
2022-09-11T18:42:32.703Z,100874.47
2022-09-11T18:45:00.508Z,100881.44
2022-09-11T18:47:30.571Z,100879.59
2022-09-11T18:50:01.029Z,100876.38
2022-09-11T18:52:30.717Z,100883.63
2022-09-11T18:55:00.099Z,100884.66
2022-09-11T18:57:28.600Z,100886.41
2022-09-11T18:59:56.333Z,100885.81
2022-09-11T19:02:23.945Z,100888.31
2022-09-11T19:04:52.720Z,100888.81
2022-09-11T19:07:32.323Z,100893.81
2022-09-11T19:10:00.342Z,100894.84
2022-09-11T19:12:28.261Z,100904.00
2022-09-11T19:14:55.899Z,100899.78
2022-09-11T19:17:23.710Z,100908.28
2022-09-11T19:19:51.763Z,100905.84
2022-09-11T19:22:22.718Z,100902.41
2022-09-11T19:24:50.298Z,100910.19
2022-09-11T19:27:18.026Z,100907.31
2022-09-11T19:29:46.260Z,100920.78
2022-09-11T19:32:14.394Z,100923.34
2022-09-11T19:34:46.523Z,100917.38
2022-09-11T19:37:15.181Z,100919.63
2022-09-11T19:39:44.702Z,100914.22
2022-09-11T19:42:12.456Z,100913.03
2022-09-11T19:44:40.778Z,100913.25
2022-09-11T19:47:09.000Z,100920.72
2022-09-11T19:49:37.375Z,100916.88
2022-09-11T19:52:05.907Z,100917.34
2022-09-11T19:54:34.627Z,100910.88
2022-09-11T19:57:04.676Z,100913.16
2022-09-11T19:59:32.739Z,100909.75
2022-09-11T20:02:00.592Z,100915.19
2022-09-11T20:04:28.323Z,100920.66
2022-09-11T20:06:56.034Z,100921.94
2022-09-11T20:09:32.346Z,100916.97
2022-09-11T20:12:01.380Z,100918.03
2022-09-11T20:14:31.083Z,100916.56
2022-09-11T20:17:00.604Z,100922.50
2022-09-11T20:19:28.513Z,100923.53
2022-09-11T20:21:56.048Z,100922.31
2022-09-11T20:24:23.894Z,100928.72
2022-09-11T20:26:53.534Z,100928.06
2022-09-11T20:29:21.154Z,100932.25
2022-09-11T20:31:51.096Z,100935.31
2022-09-11T20:34:20.184Z,100937.78
2022-09-11T20:36:48.439Z,100929.91
2022-09-11T20:39:21.570Z,100937.53
2022-09-11T20:41:49.196Z,100935.44
2022-09-11T20:44:17.064Z,100931.72
2022-09-11T20:46:47.347Z,100922.25
2022-09-11T20:49:16.437Z,100924.59
2022-09-11T20:51:44.202Z,100920.09
2022-09-11T20:54:11.808Z,100920.31
2022-09-11T20:56:39.592Z,100916.41
2022-09-11T20:59:07.253Z,100915.41
2022-09-11T21:01:35.627Z,100919.59
2022-09-11T21:04:04.632Z,100918.88
2022-09-11T21:06:35.542Z,100918.09
2022-09-11T21:09:07.405Z,100915.25
2022-09-11T21:11:36.087Z,100911.72
2022-09-11T21:14:07.503Z,100913.13
2022-09-11T21:16:37.101Z,100913.50
2022-09-11T21:19:12.175Z,100904.44
2022-09-11T21:21:41.084Z,100907.13
2022-09-11T21:24:11.572Z,100910.63
2022-09-11T21:26:42.801Z,100906.34
2022-09-11T21:29:12.729Z,100903.06
2022-09-11T21:31:40.416Z,100905.13
2022-09-11T21:34:08.187Z,100908.44
2022-09-11T21:36:36.946Z,100905.13
2022-09-11T21:39:06.518Z,100899.59
2022-09-11T21:41:34.115Z,100905.56
2022-09-11T21:44:01.903Z,100903.50
2022-09-11T21:46:29.493Z,100896.28
2022-09-11T21:48:57.061Z,100898.34
2022-09-11T21:51:24.600Z,100894.22
2022-09-11T21:53:58.078Z,100899.41
2022-09-11T21:56:29.408Z,100894.66
2022-09-11T21:58:57.206Z,100891.75
2022-09-11T22:01:27.591Z,100891.13
2022-09-11T22:03:56.804Z,100895.47
2022-09-11T22:06:26.517Z,100893.00
2022-09-11T22:08:56.256Z,100894.88
2022-09-11T22:11:25.802Z,100902.09
2022-09-11T22:13:55.113Z,100896.94
2022-09-11T22:16:23.293Z,100888.66
2022-09-11T22:18:54.645Z,100891.97
2022-09-11T22:21:24.821Z,100885.16
2022-09-11T22:23:52.491Z,100891.13
2022-09-11T22:26:21.155Z,100881.81
2022-09-11T22:28:48.968Z,100883.06
2022-09-11T22:31:22.795Z,100887.38
2022-09-11T22:33:50.796Z,100879.72
2022-09-11T22:36:20.934Z,100891.53
2022-09-11T22:38:50.362Z,100885.13
2022-09-11T22:41:18.404Z,100882.41
2022-09-11T22:43:47.440Z,100881.38
2022-09-11T22:46:15.308Z,100886.31
2022-09-11T22:48:44.691Z,100888.59
2022-09-11T22:51:12.533Z,100894.97
2022-09-11T22:53:40.509Z,100888.22
2022-09-11T22:56:09.373Z,100886.75
2022-09-11T22:58:38.330Z,100896.25
2022-09-11T23:01:07.920Z,100895.19
2022-09-11T23:03:35.630Z,100899.31
2022-09-11T23:06:27.953Z,100890.22
2022-09-11T23:08:56.054Z,100889.22
2022-09-11T23:11:23.782Z,100888.19
2022-09-11T23:13:52.319Z,100887.78
2022-09-11T23:16:21.280Z,100893.34
2022-09-11T23:18:49.497Z,100892.53
2022-09-11T23:21:18.419Z,100886.75
2022-09-11T23:23:54.310Z,100889.16
2022-09-11T23:26:22.476Z,100886.44
2022-09-11T23:28:50.017Z,100879.84
2022-09-11T23:31:20.267Z,100879.28
2022-09-11T23:33:48.328Z,100877.09
2022-09-11T23:36:18.133Z,100876.06
2022-09-11T23:38:46.482Z,100868.22
2022-09-11T23:41:14.711Z,100868.84
2022-09-11T23:43:42.366Z,100877.31
2022-09-11T23:46:10.203Z,100872.94
2022-09-11T23:48:37.883Z,100872.69
2022-09-11T23:51:07.449Z,100865.47
2022-09-11T23:53:36.294Z,100876.78
2022-09-11T23:56:04.266Z,100872.63
2022-09-11T23:58:36.593Z,100882.50
